createdAt,value
2022-12-29T00:01:10.033Z,34.50
2022-12-29T00:03:55.665Z,28.55
2022-12-29T00:06:41.250Z,31.75
2022-12-29T00:09:27.356Z,43.58
2022-12-29T00:12:12.464Z,27.80
2022-12-29T00:15:16.161Z,31.65
2022-12-29T00:18:02.966Z,30.95
2022-12-29T00:21:06.898Z,36.95
2022-12-29T00:24:10.882Z,27.48
2022-12-29T00:27:27.266Z,31.73
2022-12-29T00:30:34.169Z,34.75
2022-12-29T00:33:41.011Z,38.90
2022-12-29T00:36:34.300Z,40.20
2022-12-29T00:39:38.365Z,34.83
2022-12-29T00:42:42.392Z,31.75
2022-12-29T00:45:27.419Z,37.22
2022-12-29T00:48:12.676Z,37.30
2022-12-29T00:50:57.828Z,31.92
2022-12-29T00:53:43.179Z,33.00
2022-12-29T00:56:28.595Z,23.33
2022-12-29T00:59:13.912Z,41.00
2022-12-29T01:01:59.686Z,38.17
2022-12-29T01:04:44.972Z,32.95
2022-12-29T01:07:29.989Z,34.53
2022-12-29T01:10:16.140Z,29.98
2022-12-29T01:13:01.093Z,36.10
2022-12-29T01:15:54.568Z,41.17
2022-12-29T01:18:39.785Z,26.15
2022-12-29T01:21:25.120Z,31.45
2022-12-29T01:24:10.208Z,28.85
2022-12-29T01:26:55.776Z,33.25
2022-12-29T01:29:40.827Z,32.92
2022-12-29T01:32:26.215Z,24.40
2022-12-29T01:35:11.854Z,34.00
2022-12-29T01:37:57.278Z,25.33
2022-12-29T01:40:47.064Z,32.13
2022-12-29T01:46:41.156Z,31.88
2022-12-29T01:49:28.536Z,30.55
2022-12-29T01:52:13.770Z,33.67
2022-12-29T01:55:02.200Z,32.50
2022-12-29T01:57:52.731Z,34.13
2022-12-29T02:00:38.547Z,34.88
2022-12-29T02:03:27.553Z,37.97
2022-12-29T02:06:19.196Z,33.08
2022-12-29T02:09:04.225Z,33.58
2022-12-29T02:11:49.407Z,33.08
2022-12-29T02:14:34.828Z,31.52
2022-12-29T02:17:19.958Z,35.72
2022-12-29T02:20:07.837Z,26.05
2022-12-29T02:23:31.865Z,32.75
2022-12-29T02:26:29.339Z,36.40
2022-12-29T02:29:36.304Z,36.58
2022-12-29T02:32:39.002Z,33.67
2022-12-29T02:35:38.511Z,43.50
2022-12-29T02:38:51.385Z,34.30
2022-12-29T02:41:59.807Z,38.17
2022-12-29T02:45:18.511Z,27.48
2022-12-29T02:48:38.018Z,35.20
2022-12-29T02:51:33.288Z,32.42
2022-12-29T02:54:39.383Z,35.67
2022-12-29T02:57:24.390Z,40.53
2022-12-29T03:00:13.388Z,39.95
2022-12-29T03:03:11.248Z,33.42
2022-12-29T03:06:14.846Z,35.22
2022-12-29T03:09:37.016Z,40.42
2022-12-29T03:12:45.536Z,33.70
2022-12-29T03:16:06.591Z,42.75
2022-12-29T03:19:09.024Z,37.60
2022-12-29T03:22:29.255Z,41.80
2022-12-29T03:25:36.476Z,41.97
2022-12-29T03:28:26.759Z,37.38
2022-12-29T03:31:14.475Z,29.45
2022-12-29T03:34:00.686Z,36.80
2022-12-29T03:36:53.080Z,31.45
2022-12-29T03:39:38.596Z,42.08
2022-12-29T03:42:27.497Z,35.75
2022-12-29T03:45:12.569Z,35.90
2022-12-29T03:47:57.550Z,41.17
2022-12-29T03:50:42.607Z,37.10
2022-12-29T03:53:27.678Z,41.15
2022-12-29T03:56:12.838Z,38.63
2022-12-29T03:58:57.987Z,31.30
2022-12-29T04:01:43.021Z,38.00
2022-12-29T04:04:28.202Z,49.65
2022-12-29T04:07:13.399Z,36.35
2022-12-29T04:09:58.626Z,43.72
2022-12-29T04:12:43.561Z,34.75
2022-12-29T04:15:28.973Z,35.13
2022-12-29T04:18:14.297Z,34.75
2022-12-29T04:21:03.615Z,41.42
2022-12-29T04:23:49.051Z,46.45
2022-12-29T04:26:34.525Z,41.45
2022-12-29T04:29:19.493Z,40.95
2022-12-29T04:32:05.959Z,35.65
2022-12-29T04:34:51.126Z,36.28
2022-12-29T04:37:36.035Z,44.53
2022-12-29T04:40:20.920Z,41.47
2022-12-29T04:43:06.827Z,31.35
2022-12-29T04:45:52.566Z,36.95
2022-12-29T04:48:37.659Z,37.63
2022-12-29T04:51:23.329Z,27.35
2022-12-29T04:54:08.481Z,29.40
2022-12-29T04:56:53.653Z,32.58
2022-12-29T04:59:38.594Z,34.15
2022-12-29T05:02:24.417Z,31.65
2022-12-29T05:05:10.034Z,40.33
2022-12-29T05:07:55.423Z,44.97
2022-12-29T05:10:40.763Z,35.92
2022-12-29T05:13:26.000Z,37.17
2022-12-29T05:16:11.042Z,28.52
2022-12-29T05:18:56.063Z,30.40
2022-12-29T05:21:40.988Z,32.35
2022-12-29T05:24:26.179Z,41.08
2022-12-29T05:27:11.557Z,29.25
2022-12-29T05:29:56.814Z,23.88
2022-12-29T05:32:41.851Z,29.27
2022-12-29T05:35:27.444Z,24.70
2022-12-29T05:38:12.645Z,31.65
2022-12-29T05:40:57.788Z,31.67
2022-12-29T05:43:42.911Z,30.25
2022-12-29T05:46:27.974Z,32.53
2022-12-29T05:49:13.208Z,26.42
2022-12-29T05:51:59.630Z,36.20
2022-12-29T05:54:44.904Z,43.75
2022-12-29T05:57:30.271Z,31.00
2022-12-29T06:00:15.847Z,35.67
2022-12-29T06:03:02.308Z,32.25
2022-12-29T06:05:47.975Z,33.03
2022-12-29T06:08:33.167Z,39.13
2022-12-29T06:11:18.197Z,32.17
2022-12-29T06:14:03.480Z,32.88
2022-12-29T06:16:48.758Z,30.80
2022-12-29T06:19:34.214Z,36.40
2022-12-29T06:22:19.293Z,34.63
2022-12-29T06:25:05.341Z,33.65
2022-12-29T06:27:50.806Z,26.13
2022-12-29T06:30:36.118Z,27.27
2022-12-29T06:33:21.899Z,21.52
2022-12-29T06:36:07.336Z,24.83
2022-12-29T06:38:53.502Z,27.70
2022-12-29T06:41:38.903Z,26.65
2022-12-29T06:44:24.234Z,27.38
2022-12-29T06:47:09.202Z,23.05
2022-12-29T06:49:54.487Z,18.35
2022-12-29T06:52:39.659Z,17.83
2022-12-29T06:55:24.745Z,14.27
2022-12-29T06:58:10.383Z,9.00
2022-12-29T07:00:55.800Z,12.75
2022-12-29T07:03:43.636Z,10.55
2022-12-29T07:06:28.859Z,7.93
2022-12-29T07:09:13.692Z,10.52
2022-12-29T07:11:59.079Z,8.05
2022-12-29T07:14:44.179Z,11.23
2022-12-29T07:17:29.307Z,6.95
2022-12-29T07:20:14.196Z,9.02
2022-12-29T07:22:59.533Z,7.75
2022-12-29T07:25:44.694Z,7.32
2022-12-29T07:28:30.289Z,10.52
2022-12-29T07:31:18.219Z,9.95
2022-12-29T07:34:03.524Z,8.05
2022-12-29T07:36:48.773Z,12.38
2022-12-29T07:39:33.995Z,9.07
2022-12-29T07:42:18.868Z,10.20
2022-12-29T07:45:04.336Z,10.13
2022-12-29T07:47:50.446Z,8.15
2022-12-29T07:50:36.477Z,10.05
2022-12-29T07:53:21.799Z,11.40
2022-12-29T07:56:07.219Z,9.75
2022-12-29T07:58:52.164Z,8.05
2022-12-29T08:01:37.206Z,7.95
2022-12-29T08:04:22.839Z,8.52
2022-12-29T08:07:07.992Z,4.93
2022-12-29T08:09:53.407Z,4.18
2022-12-29T08:12:40.408Z,6.22
2022-12-29T08:15:30.466Z,6.05
2022-12-29T08:18:17.589Z,7.50
2022-12-29T08:21:05.098Z,7.25
2022-12-29T08:23:50.389Z,8.98
2022-12-29T08:26:35.369Z,7.40
2022-12-29T08:29:22.338Z,5.28
2022-12-29T08:32:07.523Z,4.82
2022-12-29T08:34:52.724Z,7.03
2022-12-29T08:37:37.834Z,4.40
2022-12-29T08:40:23.065Z,6.70
2022-12-29T08:43:09.302Z,7.13
2022-12-29T08:45:54.638Z,10.20
2022-12-29T08:48:39.956Z,5.97
2022-12-29T08:51:25.441Z,8.60
2022-12-29T08:54:10.466Z,11.80
2022-12-29T08:56:55.785Z,7.85
2022-12-29T08:59:41.015Z,6.75
2022-12-29T09:02:26.224Z,12.43
2022-12-29T09:05:12.268Z,7.35
2022-12-29T09:07:57.469Z,7.43
2022-12-29T09:10:42.657Z,13.60
2022-12-29T09:13:27.729Z,7.25
2022-12-29T09:16:13.015Z,7.72
2022-12-29T09:18:58.130Z,12.48
2022-12-29T09:21:43.244Z,14.88
2022-12-29T09:24:28.224Z,9.32
2022-12-29T09:27:13.361Z,5.78
2022-12-29T09:29:58.579Z,11.02
2022-12-29T09:32:45.458Z,8.55
2022-12-29T09:35:31.640Z,8.95
2022-12-29T09:38:17.894Z,6.97
2022-12-29T09:41:15.845Z,8.27
2022-12-29T09:44:40.421Z,13.32
2022-12-29T09:47:26.650Z,10.40
2022-12-29T09:50:17.687Z,11.50
2022-12-29T09:53:17.387Z,11.27
2022-12-29T09:59:14.263Z,9.15
2022-12-29T10:02:13.820Z,14.35
2022-12-29T10:04:59.535Z,16.55
2022-12-29T10:07:53.002Z,9.07
2022-12-29T10:10:48.018Z,13.02
2022-12-29T10:13:38.968Z,11.35
2022-12-29T10:17:03.656Z,16.35
2022-12-29T10:20:00.399Z,11.88
2022-12-29T10:23:17.433Z,9.88
2022-12-29T10:26:04.523Z,11.60
2022-12-29T10:28:58.679Z,12.77
2022-12-29T10:32:06.784Z,13.20
2022-12-29T10:34:59.534Z,11.35
2022-12-29T10:37:49.071Z,8.77
2022-12-29T10:40:41.516Z,6.85
2022-12-29T10:43:29.836Z,9.65
2022-12-29T10:46:45.087Z,6.78
2022-12-29T10:49:33.474Z,8.95
2022-12-29T10:52:21.048Z,8.75
2022-12-29T10:55:13.729Z,8.60
2022-12-29T10:58:05.704Z,5.47
2022-12-29T11:00:54.604Z,8.05
2022-12-29T11:03:51.226Z,7.13
2022-12-29T11:06:38.640Z,10.32
2022-12-29T11:09:41.931Z,5.32
2022-12-29T11:12:30.722Z,5.53
2022-12-29T11:15:16.957Z,4.13
2022-12-29T11:18:02.226Z,5.80
2022-12-29T11:20:48.157Z,9.27
2022-12-29T11:23:36.729Z,5.70
2022-12-29T11:26:28.808Z,6.78
2022-12-29T11:29:17.213Z,5.60
2022-12-29T11:32:12.777Z,7.22
2022-12-29T11:34:59.577Z,3.40
2022-12-29T11:37:44.699Z,7.82
2022-12-29T11:40:30.695Z,5.45
2022-12-29T11:43:34.779Z,7.25
2022-12-29T11:46:32.765Z,6.57
2022-12-29T11:49:27.251Z,11.02
2022-12-29T11:52:13.802Z,6.63
2022-12-29T11:54:59.198Z,10.82
2022-12-29T11:57:45.691Z,8.32
2022-12-29T12:00:35.623Z,7.18
2022-12-29T12:03:23.991Z,10.25
2022-12-29T12:06:17.619Z,6.20
2022-12-29T12:09:09.443Z,11.00
2022-12-29T12:11:56.477Z,10.38
2022-12-29T12:14:57.485Z,10.07
2022-12-29T12:17:58.410Z,7.53
2022-12-29T12:20:50.951Z,8.90
2022-12-29T12:24:01.343Z,10.27
2022-12-29T12:26:56.773Z,10.73
2022-12-29T12:30:04.814Z,15.05
2022-12-29T12:33:06.195Z,10.27
2022-12-29T12:36:10.299Z,9.07
2022-12-29T12:39:11.352Z,14.57
2022-12-29T12:42:25.535Z,12.10
2022-12-29T12:45:39.740Z,10.43
2022-12-29T12:48:42.307Z,12.88
2022-12-29T12:51:27.530Z,17.27
2022-12-29T12:54:31.018Z,12.57
2022-12-29T12:57:48.575Z,11.85
2022-12-29T13:00:44.442Z,21.63
2022-12-29T13:03:59.966Z,18.52
2022-12-29T13:07:21.017Z,15.00
2022-12-29T13:10:18.737Z,21.73
2022-12-29T13:13:34.160Z,18.48
2022-12-29T13:16:26.780Z,17.75
2022-12-29T13:19:20.630Z,15.63
2022-12-29T13:22:28.468Z,10.88
2022-12-29T13:25:31.988Z,15.65
2022-12-29T13:28:32.263Z,12.93
2022-12-29T13:31:22.141Z,16.92
2022-12-29T13:34:26.542Z,17.23
2022-12-29T13:37:19.603Z,21.33
2022-12-29T13:40:14.045Z,16.33
2022-12-29T13:43:00.641Z,19.63
2022-12-29T13:45:46.796Z,18.48
2022-12-29T13:48:45.787Z,15.73
2022-12-29T13:51:32.160Z,14.75
2022-12-29T13:55:01.230Z,16.54
2022-12-29T13:57:58.033Z,16.30
2022-12-29T14:01:09.441Z,14.70
2022-12-29T14:03:58.032Z,17.73
2022-12-29T14:06:45.708Z,12.38
2022-12-29T14:09:47.205Z,8.70
2022-12-29T14:12:43.775Z,13.18
2022-12-29T14:15:29.027Z,24.15
2022-12-29T14:18:23.397Z,16.42
2022-12-29T14:21:14.636Z,16.17
2022-12-29T14:24:35.673Z,14.13
2022-12-29T14:27:21.360Z,16.10
2022-12-29T14:30:49.798Z,12.13
2022-12-29T14:33:35.563Z,16.20
2022-12-29T14:36:26.379Z,8.98
2022-12-29T14:39:31.606Z,16.80
2022-12-29T14:42:23.506Z,13.18
2022-12-29T14:45:14.486Z,16.33
2022-12-29T14:48:00.203Z,11.60
2022-12-29T14:50:46.208Z,15.40
2022-12-29T14:53:49.923Z,14.15
2022-12-29T14:56:40.800Z,23.88
2022-12-29T14:59:27.365Z,11.23
2022-12-29T15:02:23.382Z,10.80
2022-12-29T15:05:28.775Z,13.85
2022-12-29T15:08:18.974Z,12.68
2022-12-29T15:11:16.859Z,11.38
2022-12-29T15:14:02.104Z,13.55
2022-12-29T15:16:47.292Z,14.50
2022-12-29T15:19:32.569Z,15.77
2022-12-29T15:22:17.856Z,12.80
2022-12-29T15:25:03.600Z,16.38
2022-12-29T15:27:53.838Z,9.13
2022-12-29T15:31:17.102Z,13.73
2022-12-29T15:34:11.523Z,14.93
2022-12-29T15:36:56.953Z,11.80
2022-12-29T15:39:42.064Z,18.48
2022-12-29T15:42:51.449Z,11.38
2022-12-29T15:45:36.855Z,12.23
2022-12-29T15:48:24.037Z,14.60
2022-12-29T15:51:24.351Z,15.48
2022-12-29T15:54:31.353Z,18.30
2022-12-29T15:57:33.620Z,18.17
2022-12-29T16:00:27.019Z,15.80
2022-12-29T16:03:14.968Z,17.13
2022-12-29T16:06:32.814Z,15.95
2022-12-29T16:09:20.117Z,17.13
2022-12-29T16:12:08.959Z,15.60
2022-12-29T16:14:59.187Z,17.77
2022-12-29T16:20:43.385Z,17.73
2022-12-29T16:23:30.917Z,18.77
2022-12-29T16:26:20.964Z,18.30
2022-12-29T16:29:09.102Z,17.73
2022-12-29T16:32:01.748Z,14.10
2022-12-29T16:34:47.183Z,11.98
2022-12-29T16:37:35.172Z,24.23
2022-12-29T16:40:31.953Z,14.10
2022-12-29T16:43:23.511Z,17.10
2022-12-29T16:46:27.909Z,21.33
2022-12-29T16:49:21.242Z,20.98
2022-12-29T16:52:30.767Z,17.08
2022-12-29T16:55:19.145Z,12.38
2022-12-29T16:58:04.401Z,18.90
2022-12-29T17:00:50.224Z,14.40
2022-12-29T17:03:40.240Z,19.60
2022-12-29T17:06:25.281Z,11.40
2022-12-29T17:09:23.004Z,12.48
2022-12-29T17:12:18.218Z,14.02
2022-12-29T17:15:10.946Z,12.45
2022-12-29T17:17:57.072Z,11.18
2022-12-29T17:20:42.190Z,10.05
2022-12-29T17:23:27.167Z,14.40
2022-12-29T17:26:13.616Z,17.30
2022-12-29T17:28:58.896Z,13.98
2022-12-29T17:31:44.050Z,16.77
2022-12-29T17:34:29.145Z,13.30
2022-12-29T17:37:50.262Z,15.02
2022-12-29T17:40:36.363Z,20.40
2022-12-29T17:43:21.734Z,11.48
2022-12-29T17:46:08.094Z,10.32
2022-12-29T17:48:53.993Z,12.45
2022-12-29T17:51:39.210Z,15.45
2022-12-29T17:54:26.402Z,17.88
2022-12-29T17:57:16.570Z,19.85
2022-12-29T18:00:01.910Z,15.45
2022-12-29T18:02:48.904Z,12.40
2022-12-29T18:05:34.641Z,20.33
2022-12-29T18:08:19.759Z,18.92
2022-12-29T18:11:15.471Z,16.33
2022-12-29T18:14:03.050Z,12.93
2022-12-29T18:16:48.351Z,18.35
2022-12-29T18:19:36.080Z,11.98
2022-12-29T18:22:23.257Z,12.68
2022-12-29T18:25:17.843Z,20.35
2022-12-29T18:28:02.859Z,14.38
2022-12-29T18:30:48.299Z,18.90
2022-12-29T18:33:33.617Z,15.50
2022-12-29T18:36:19.455Z,24.17
2022-12-29T18:39:04.671Z,17.65
2022-12-29T18:41:49.644Z,15.95
2022-12-29T18:44:35.306Z,22.58
2022-12-29T18:47:20.468Z,18.45
2022-12-29T18:50:05.834Z,17.77
2022-12-29T18:52:50.732Z,21.95
2022-12-29T18:55:35.823Z,19.88
2022-12-29T18:58:20.937Z,13.50
2022-12-29T19:01:07.024Z,16.88
2022-12-29T19:03:52.482Z,16.33
2022-12-29T19:06:37.825Z,19.20
2022-12-29T19:09:23.720Z,13.40
2022-12-29T19:12:08.785Z,22.58
2022-12-29T19:14:54.063Z,20.27
2022-12-29T19:17:39.055Z,15.38
2022-12-29T19:20:36.449Z,14.48
2022-12-29T19:23:23.834Z,16.55
2022-12-29T19:26:29.261Z,17.23
2022-12-29T19:29:16.019Z,20.60
2022-12-29T19:32:01.235Z,16.33
2022-12-29T19:34:48.766Z,13.20
2022-12-29T19:37:36.390Z,24.00
2022-12-29T19:40:23.794Z,22.25
2022-12-29T19:43:11.702Z,18.02
2022-12-29T19:45:56.685Z,19.33
2022-12-29T19:48:41.977Z,16.95
2022-12-29T19:51:27.531Z,18.00
2022-12-29T19:54:12.432Z,25.77
2022-12-29T19:56:57.690Z,17.02
2022-12-29T19:59:42.893Z,24.23
2022-12-29T20:02:31.585Z,20.65
2022-12-29T20:05:16.719Z,23.17
2022-12-29T20:08:01.999Z,22.33
2022-12-29T20:10:57.072Z,15.55
2022-12-29T20:13:42.935Z,18.63
2022-12-29T20:16:29.680Z,28.83
2022-12-29T20:19:14.884Z,18.67
2022-12-29T20:22:00.778Z,20.27
2022-12-29T20:24:50.024Z,21.80
2022-12-29T20:27:35.575Z,17.90
2022-12-29T20:30:20.755Z,22.95
2022-12-29T20:33:08.260Z,27.13
2022-12-29T20:35:54.183Z,24.85
2022-12-29T20:38:39.409Z,25.48
2022-12-29T20:41:25.317Z,16.88
2022-12-29T20:44:10.726Z,23.95
2022-12-29T20:46:55.733Z,24.17
2022-12-29T20:49:40.927Z,26.38
2022-12-29T20:52:25.795Z,20.83
2022-12-29T20:55:10.811Z,21.08
2022-12-29T20:58:25.958Z,20.67
2022-12-29T21:01:03.569Z,16.27
2022-12-29T21:03:48.929Z,19.70
2022-12-29T21:06:34.941Z,14.85
2022-12-29T21:09:20.293Z,25.00
2022-12-29T21:12:05.477Z,18.90
2022-12-29T21:14:50.669Z,19.23
2022-12-29T21:17:36.230Z,22.08
2022-12-29T21:20:21.394Z,22.02
2022-12-29T21:23:07.356Z,28.90
2022-12-29T21:25:53.682Z,19.20
2022-12-29T21:28:40.075Z,27.90
2022-12-29T21:31:34.281Z,16.42
2022-12-29T21:34:19.452Z,21.88
2022-12-29T21:37:04.592Z,15.93
2022-12-29T21:39:49.463Z,14.77
2022-12-29T21:42:34.491Z,19.55
2022-12-29T21:45:25.743Z,18.80
2022-12-29T21:48:26.494Z,29.23
2022-12-29T21:51:32.168Z,22.05
2022-12-29T21:54:37.621Z,14.95
2022-12-29T21:57:41.614Z,19.85
2022-12-29T22:00:45.289Z,19.60
2022-12-29T22:03:49.033Z,20.92
2022-12-29T22:06:53.143Z,12.93
2022-12-29T22:09:57.019Z,17.35
2022-12-29T22:13:00.831Z,18.95
2022-12-29T22:15:46.178Z,19.00
2022-12-29T22:18:31.717Z,15.35
2022-12-29T22:21:17.266Z,18.40
2022-12-29T22:24:02.203Z,19.58
2022-12-29T22:26:47.480Z,14.85
2022-12-29T22:29:32.400Z,21.13
2022-12-29T22:32:17.456Z,32.72
2022-12-29T22:35:07.742Z,56.05
2022-12-29T22:37:53.412Z,36.15
2022-12-29T22:40:38.618Z,39.35
2022-12-29T22:43:23.897Z,20.35
2022-12-29T22:46:09.290Z,15.48
2022-12-29T22:48:56.896Z,10.32
2022-12-29T22:51:41.659Z,15.57
2022-12-29T22:54:26.569Z,11.93
2022-12-29T22:57:12.183Z,13.82
2022-12-29T22:59:57.299Z,24.73
2022-12-29T23:02:42.825Z,10.38
2022-12-29T23:05:27.956Z,14.45
2022-12-29T23:08:12.932Z,14.38
2022-12-29T23:10:58.272Z,19.48
2022-12-29T23:13:45.016Z,16.48
2022-12-29T23:16:30.096Z,19.65
2022-12-29T23:19:15.712Z,15.85
2022-12-29T23:22:00.906Z,22.95
2022-12-29T23:24:46.077Z,14.57
2022-12-29T23:27:30.963Z,18.25
2022-12-29T23:30:16.225Z,12.18
2022-12-29T23:33:01.309Z,13.13
2022-12-29T23:35:46.402Z,12.30
2022-12-29T23:38:31.308Z,21.42
2022-12-29T23:41:16.208Z,20.60
2022-12-29T23:44:01.233Z,20.85
2022-12-29T23:46:46.618Z,14.38
2022-12-29T23:49:32.050Z,19.00
2022-12-29T23:52:17.135Z,19.02
2022-12-29T23:55:02.770Z,18.80
2022-12-29T23:57:47.640Z,17.25
